Dutch
Home     News     Corporate     Events & Tours     Flight ops     Crew centre      
My transavia virtual    Join us    Last logs    Who is flying    Forum    Software    Training    VRTS     
 

view flightdata
view flightplan
view OFP
view flightlog



flightdata:
pilot: Gianfranco Invernizzi Angelini
flight: TRA7465
from: LJLJ (Ljubljana)
to: EHBK (Maastricht)
date: 14-02-2019
departure: 18:07z
arrival: 19:37z
duration: 1:29
aircraft: B738 (PHHZE)
distance: 493 NM
touchdown: -76 ft/m @ 131 KIAS



flightplan:
-(FPL-TRA7465-IS
-B738/M-SDEHPRWXY/EHLSB1
-LJLJ1813
-N0445F360 GIMIX DCT ERKIR L608 TEDGO UZ210 LIRSU UL608 BATTY T855 LNO
-EHBK0100 EBBR
-PBN/B1D1LO1 DOF/190214 REG/PHHZE SEL/JQDH CODE/4841A5 OPR/TRA RVR/200 RMK/TCAS)



operational flightplan (OFP):
NO LOADSHEET AVAILABLE

WEATHER BRIEFING - GENERATED 14 FEB 2019 17:58 UTC
--------------------------------------------------------------------------------

LJLJ EHBK EBBR

--------------------------------------------------------------------------------
ORIGIN: LJLJ (LJUBLJANA)
--------------------------------------------------------------------------------
LJLJ 141730Z VRB01KT CAVOK 02/M00 Q1033 NOSIG

LJLJ 141400Z 1415/1515 VRB02KT CAVOK
      BECMG 1510/1511 12005KT


--------------------------------------------------------------------------------
DESTINATION: EHBK (MAASTRICHT)
--------------------------------------------------------------------------------
EHBK 141725Z AUTO 10006KT 080V160 9999 NSC 09/01 Q1033 NOSIG

EHBK 141111Z 1412/1518 14004KT CAVOK


--------------------------------------------------------------------------------
ALTERNATE: EBBR (BRUSSELS)
--------------------------------------------------------------------------------
EBBR 141720Z 13003KT CAVOK 10/01 Q1033 NOSIG

EBBR 141110Z 1412/1518 13004KT CAVOK=  EDDF 141100Z 1412/1518 07003KT CAVOK


NOTAM BRIEFING - GENERATED 14 FEB 2019 17:58 UTC
--------------------------------------------------------------------------------

LJLJ EHBK EBBR

--------------------------------------------------------------------------------
GLOBAL TRANSAVIA.COM VIRTUAL NOTAMS
--------------------------------------------------------------------------------
REF:NIL PLEASE CONTACT OPERATIONS IN CASE OF STRUCTURAL FLIGHTPLAN ERRORS ON FLIGHT-OPS@TRANSAVIA-VIRTUAL.COM
VALID:UFN

REF:NIL
PLEASE CHECK ACARS EVERY 10 MINUTES WHEN FLYING WITH SOUND OFF. AN NEW ACARS MESSAGE PRODUCE A SOUND SIGNAL UNTILL ITS READ. FLOWCONTROL DON'T RECEIVE MUCH REACTION ON OUTGOING ACARS MESSAGES ACCORDING FLIGHTSTATUS.
SOURCE: SPL/HV/OCC/
END VALID: UFN

REF:NIL
PLEASE CONTACT FLOWCONTROL IN CASE OF PROBLEMS WITH ROUTINGS
SOURCE: SPL/HV/OCC/
END VALID: UFN

REF:NIL
IN CASE OF ENGINE-OUT FLY V2 OR V2 20 MAX. UNTIL ABOVE MSA.
LEVEL-OFF AT AN ALTITUDE ROUNDED OFF TO THE FIRST 1000 FT OF THE HIGHEST MSA.
E.G: MSA EHAM; 1.7 AND 2.3 LEVEL-OFF 3000 FT. AFTER LANDING MAKE A REP TO OCC ON 131.975
SOURCE:SPL/HV/OCC
END VALID:UFN



flightlog:
Pilot : Gianfranco Invernizzi Angelini
Flight: TRA7465
From  : LJLJ Ljubljana
To    : EHBK Maastricht

[FLIGHTLOG] 1.5.4
14-02-2019 18:03:44z, logging started
14-02-2019 18:07:57z, parking brake released
14-02-2019 18:11:44z, flaps set to 13%
14-02-2019 18:11:52z, flaps set to 25%
14-02-2019 18:11:56z, flaps set to 38%
14-02-2019 18:16:56z, take-off at 146 KIAS
14-02-2019 18:16:56z, pos report: 146 KIAS, 01 283 ft, heading 306, winds 359 @ 01 kts
14-02-2019 18:16:56z, flying OFFLINE
14-02-2019 18:16:56z, position: LJLJ - Ljubljana
14-02-2019 18:16:59z, retracted gear at 159 KIAS and 68 ft AGL
14-02-2019 18:17:34z, passing inner marker
14-02-2019 18:18:43z, pos report: 212 KIAS, 06 136 ft, heading 273, winds 349 @ 16 kts
14-02-2019 18:19:15z, flaps set to 25%
14-02-2019 18:19:19z, flaps set to 13%
14-02-2019 18:19:26z, flaps set to 0%
14-02-2019 18:33:44z, pos report: 251 KIAS, 36 619 ft, heading 317, winds 030 @ 40 kts
14-02-2019 18:48:45z, pos report: 251 KIAS, 36 643 ft, heading 316, winds 009 @ 38 kts
14-02-2019 19:03:46z, pos report: 274 KIAS, 36 654 ft, heading 313, winds 007 @ 32 kts
14-02-2019 19:18:47z, pos report: 326 KIAS, 24 614 ft, heading 320, winds 010 @ 17 kts
14-02-2019 19:18:57z, deployed spoilers
14-02-2019 19:20:46z, retracted spoilers
14-02-2019 19:20:50z, deployed spoilers
14-02-2019 19:26:15z, intercepted localizer
14-02-2019 19:26:22z, lost localizer
14-02-2019 19:26:33z, on glideslope
14-02-2019 19:26:44z, below glideslope
14-02-2019 19:28:23z, flaps set to 13%
14-02-2019 19:28:35z, intercepted localizer
14-02-2019 19:28:52z, lost localizer
14-02-2019 19:29:16z, flaps set to 25%
14-02-2019 19:29:20z, flaps set to 38%
14-02-2019 19:29:52z, intercepted localizer
14-02-2019 19:32:20z, on glideslope
14-02-2019 19:32:57z, flaps set to 50%
14-02-2019 19:33:06z, flaps set to 62%
14-02-2019 19:33:08z, lowered gear at 152 KIAS and 1808 ft AGL
14-02-2019 19:33:12z, flaps set to 87%
14-02-2019 19:33:22z, retracted spoilers
14-02-2019 19:33:48z, pos report: 142 KIAS, 01 471 ft, heading 035, winds 142 @ 06 kts
14-02-2019 19:35:01z, below glideslope
14-02-2019 19:35:24z, touchdown: -76ft/m at 131 KIAS
14-02-2019 19:35:24z, pos report: 131 KIAS, 00 384 ft, heading 033, winds 100 @ 05 kts
14-02-2019 19:35:24z, flying OFFLINE
14-02-2019 19:35:24z, position: EHBK - Maastricht
14-02-2019 19:35:48z, retracted spoilers
14-02-2019 19:36:39z, flaps set to 75%
14-02-2019 19:36:42z, flaps set to 62%
14-02-2019 19:36:44z, flaps set to 50%
14-02-2019 19:36:48z, flaps set to 38%
14-02-2019 19:36:52z, flaps set to 25%
14-02-2019 19:36:56z, flaps set to 13%
14-02-2019 19:37:04z, flaps set to 0%
14-02-2019 19:37:45z, parking brake set
14-02-2019 19:38:46z, logging ended
14-02-2019 19:38:46z, this flight was flown offline

©2009-2019, transavia virtual. All rights reserved. This website is only meant for simulation purposes.
This website is not owned by transavia, nor is transavia responsible for the content of this website.